Alderpoint, CA

8:29 AM PST on November 22, 2014 (GMT -0800)
RAWS ALDER POINT CA US | Change Station
CLOSE
Current Station
Personal Weather Station
Location: Alderpoint, CA
Elevation: 1059 ft
Nearby Weather Stations

Elev 1059 ft 40.19 °N, 123.59 °W | Updated 38 minutes ago

Mostly Cloudy
Mostly Cloudy
54 °F
Feels Like 54 °F
N
1
Wind Variable Wind from SSW
Gusts 3.0 mph

Today
High -- | Low -- °F
--% Chance of Precip.
Yesterday
High -- | Low -- °F
Precip. -- in
7:07 AM 4:52 PM
New Moon, 0% visible
Pressure 30.05 in
Visibility 10.0 miles
Clouds Scattered Clouds 600 ft
Scattered Clouds 2700 ft
Overcast 5000 ft
Dew Point 54 °F
Humidity 100%
Rainfall 1.69 in
Snow Depth Not available.
UV 0 out of 12
Pollen .40 out of 12
Air Quality Not available.
Flu Activity Not available.
METAR KFOT 221615Z AUTO 34008KT 10SM SCT006 SCT027 OVC050 14/13 A3005 RMK AO1

More Conditions Fewer Conditions

Pressure 30.05 in
Visibility 10.0 miles
Clouds Scattered Clouds 600 ft
Scattered Clouds 2700 ft
Overcast 5000 ft
Dew Point 54 °F
Humidity 100%
Rainfall 1.69 in
Snow Depth Not available.
UV 0 out of 12
Pollen .40 out of 12
Air Quality Not available.
Flu Activity Not available.
METAR KFOT 221615Z AUTO 34008KT 10SM SCT006 SCT027 OVC050 14/13 A3005 RMK AO1

More Conditions Fewer Conditions

10-Day Weather Forecast

Almanac

Astronomy

Nov. 22, 2014 Rise Set
Actual Time
Civil Twilight
Nautical Twilight
Astronomical Twilight
Moon
Length of Visible Light
Length of Day
Tomorrow will be .
, % of the Moon is Illuminated

Today's Extremes

State Highs State Lows

Community

WunderPhotos

Upload Photos

1,772,843 photos uploaded!

WunderBlogs® & News

Nearby

Air Quality

  Air Quality AQ Index Pollutant
Not available.

Snow Depth

Station Depth Elevation

Earthquake Activity

City Distance Mag. Time & Date
Minimum magnitude displayed is 2.5.

Coastal Water Temperatures

Place Temperature

Nearby Weather Stations